Time;durP1;ratioP1;P1;durP2;ratioP2;P2;SDS_P1;SDS_P2;PMS_P1;PMS_P2;Temp;Humidity;BMP_temperature;BMP_pressure;BME280_temperature;BME280_humidity;BME280_pressure;Samples;Min_cycle;Max_cycle;Signal;HPM_P1;HPM_P2
2021/01/24 00:01:54;;;;;;;6.28;3.60;;;;;;;27.41;28.07;94253.06;5042571;28;20113;-38
2021/01/24 00:04:20;;;;;;;7.15;3.80;;;;;;;27.40;28.46;94254.84;5049219;28;21031;-38
2021/01/24 00:06:46;;;;;;;8.50;3.60;;;;;;;27.41;28.03;94255.69;5055352;28;20051;-38
2021/01/24 00:09:11;;;;;;;6.43;3.50;;;;;;;27.39;28.09;94261.09;5052868;28;20040;-39
2021/01/24 00:11:36;;;;;;;6.97;3.40;;;;;;;27.38;28.10;94260.25;5054256;28;20541;-38
2021/01/24 00:14:02;;;;;;;6.68;3.28;;;;;;;27.38;27.94;94256.78;5053307;28;20044;-38
2021/01/24 00:16:28;;;;;;;6.68;3.30;;;;;;;27.39;28.14;94259.28;5056325;28;20934;-38
2021/01/24 00:18:54;;;;;;;6.30;3.33;;;;;;;27.40;28.07;94265.38;5055101;28;20060;-39
2021/01/24 00:21:19;;;;;;;5.47;3.08;;;;;;;27.39;28.26;94269.81;5047196;28;20493;-39
2021/01/24 00:23:45;;;;;;;5.70;3.05;;;;;;;27.39;28.64;94258.47;5047954;28;20158;-40
2021/01/24 00:26:11;;;;;;;6.07;3.40;;;;;;;27.39;28.07;94259.28;5054025;28;20059;-36
2021/01/24 00:28:36;;;;;;;6.97;3.25;;;;;;;27.39;28.23;94264.53;5048409;28;20033;-38
2021/01/24 00:31:02;;;;;;;5.70;3.30;;;;;;;27.38;28.36;94270.78;5052325;28;20131;-38
2021/01/24 00:33:27;;;;;;;5.90;2.90;;;;;;;27.38;27.98;94260.25;5047091;28;20065;-37
2021/01/24 00:35:53;;;;;;;9.88;2.65;;;;;;;27.37;26.98;94265.69;5052914;28;20559;-39
2021/01/24 00:38:18;;;;;;;9.70;2.78;;;;;;;27.31;27.86;94256.59;5052623;28;20055;-37
2021/01/24 00:40:44;;;;;;;8.30;2.88;;;;;;;27.30;27.88;94254.94;5043346;28;20059;-38
2021/01/24 00:43:10;;;;;;;4.38;2.78;;;;;;;27.33;28.21;94254.66;5054387;28;20048;-37
2021/01/24 00:45:36;;;;;;;6.43;3.28;;;;;;;27.33;28.40;94253.81;5053351;28;20037;-38
2021/01/24 00:48:02;;;;;;;6.30;2.70;;;;;;;27.33;28.10;94267.78;5051882;28;20112;-38
2021/01/24 00:50:27;;;;;;;4.97;2.67;;;;;;;27.32;27.80;94268.78;5054907;28;20068;-40
2021/01/24 00:52:53;;;;;;;4.80;2.97;;;;;;;27.33;27.90;94273.06;5051226;28;20041;-38
2021/01/24 00:55:18;;;;;;;5.68;2.83;;;;;;;27.34;28.22;94281.78;5049399;28;20499;-39
2021/01/24 00:57:43;;;;;;;5.72;2.67;;;;;;;27.32;28.34;94276.66;5054808;28;20036;-39
2021/01/24 01:00:09;;;;;;;4.20;2.58;;;;;;;27.33;28.34;94280.09;5052679;28;20547;-37
2021/01/24 01:02:36;;;;;;;5.35;2.72;;;;;;;27.33;28.01;94278.31;5056497;28;20048;-38
2021/01/24 01:05:01;;;;;;;5.20;2.70;;;;;;;27.33;28.24;94275.69;5050879;28;20474;-40
2021/01/24 01:07:26;;;;;;;6.30;2.70;;;;;;;27.34;28.13;94287.03;5045476;28;20070;-37
2021/01/24 01:09:53;;;;;;;4.68;2.35;;;;;;;27.34;28.27;94279.94;5058629;28;20028;-37
2021/01/24 01:12:18;;;;;;;5.32;2.45;;;;;;;27.34;27.84;94287.84;5043836;28;20471;-38
2021/01/24 01:14:44;;;;;;;3.47;2.30;;;;;;;27.33;27.85;94285.38;5055404;28;20420;-40
2021/01/24 01:17:10;;;;;;;6.15;2.60;;;;;;;27.31;28.10;94285.50;5057321;28;20040;-40
2021/01/24 01:19:36;;;;;;;4.00;2.40;;;;;;;27.33;27.86;94283.56;5060433;28;20127;-38
2021/01/24 01:22:01;;;;;;;4.72;2.40;;;;;;;27.31;27.96;94276.81;5055528;28;20097;-36
2021/01/24 01:24:27;;;;;;;3.95;2.13;;;;;;;27.33;28.20;94280.94;5051576;28;20036;-37
2021/01/24 01:26:52;;;;;;;3.60;2.30;;;;;;;27.32;27.97;94279.28;5050612;28;20697;-36
2021/01/24 01:29:18;;;;;;;3.50;2.10;;;;;;;27.32;27.90;94284.56;5051095;28;20440;-36
2021/01/24 01:31:44;;;;;;;5.50;2.35;;;;;;;27.31;28.36;94288.13;5047619;28;20036;-40
2021/01/24 01:34:10;;;;;;;5.28;2.30;;;;;;;27.31;27.98;94285.50;5054900;28;20049;-38
2021/01/24 01:36:36;;;;;;;2.83;1.95;;;;;;;27.30;28.07;94297.00;5051873;28;20040;-39
2021/01/24 01:39:02;;;;;;;4.50;2.22;;;;;;;27.31;27.92;94298.66;5056144;28;20045;-37
2021/01/24 01:41:31;;;;;;;4.00;2.35;;;;;;;27.30;28.11;94289.13;5045379;28;20847;-41
2021/01/24 01:43:56;;;;;;;3.35;1.98;;;;;;;27.31;27.89;94297.84;5046773;28;20048;-39
2021/01/24 01:46:22;;;;;;;2.97;2.00;;;;;;;27.30;28.31;94297.00;5044062;28;20094;-40
2021/01/24 01:48:48;;;;;;;3.17;2.10;;;;;;;27.30;27.75;94297.00;5051908;28;20599;-40
2021/01/24 01:51:15;;;;;;;3.05;1.85;;;;;;;27.30;28.01;94311.97;5062707;28;20052;-35
2021/01/24 01:53:40;;;;;;;2.97;1.98;;;;;;;27.29;28.31;94305.03;5052059;28;20704;-39
2021/01/24 01:56:06;;;;;;;3.08;1.90;;;;;;;27.28;28.16;94320.03;5045049;28;20094;-38
2021/01/24 01:58:31;;;;;;;3.08;1.80;;;;;;;27.29;27.62;94328.72;5057158;28;20060;-35
2021/01/24 02:00:57;;;;;;;4.05;1.98;;;;;;;27.27;28.17;94334.16;5050502;28;20045;-37
2021/01/24 02:03:38;;;;;;;3.22;2.00;;;;;;;27.27;27.99;94344.66;5051755;28;20028;-41
2021/01/24 02:06:11;;;;;;;2.55;1.75;;;;;;;27.27;27.81;94358.63;5045859;28;20028;-36
2021/01/24 02:08:46;;;;;;;5.05;2.22;;;;;;;27.27;27.83;94355.19;5073090;28;20112;-38
2021/01/24 02:11:35;;;;;;;3.72;2.03;;;;;;;27.25;27.98;94359.75;5055840;28;20032;-36
2021/01/24 02:14:08;;;;;;;3.33;1.80;;;;;;;27.26;27.81;94353.50;5046868;28;20124;-40
2021/01/24 02:16:34;;;;;;;2.72;1.83;;;;;;;27.27;28.08;94363.06;5038088;28;20044;-38
2021/01/24 02:19:00;;;;;;;2.42;1.60;;;;;;;27.26;28.04;94359.59;5042371;28;20067;-38
2021/01/24 02:21:34;;;;;;;3.75;1.67;;;;;;;27.26;28.10;94358.75;5047711;28;20375;-38
2021/01/24 02:24:02;;;;;;;2.40;1.58;;;;;;;27.26;28.04;94374.53;5060562;28;20111;-39
2021/01/24 02:26:41;;;;;;;1.92;1.40;;;;;;;27.26;28.07;94374.53;5051032;28;20422;-36
2021/01/24 02:29:23;;;;;;;2.75;1.70;;;;;;;27.24;27.97;94382.56;5027984;28;20639;-37
2021/01/24 02:31:49;;;;;;;2.65;1.70;;;;;;;27.24;27.90;94389.66;5047050;28;20120;-39
2021/01/24 02:34:15;;;;;;;2.78;1.50;;;;;;;27.25;28.01;94388.66;5046404;28;20056;-38
2021/01/24 02:36:41;;;;;;;2.70;1.48;;;;;;;27.23;27.95;94401.16;5043519;28;20636;-39
2021/01/24 02:39:06;;;;;;;2.05;1.38;;;;;;;27.23;27.76;94401.16;5056094;28;20040;-39
2021/01/24 02:41:33;;;;;;;2.42;1.40;;;;;;;27.23;27.61;94401.97;5050872;28;20040;-37
2021/01/24 02:43:58;;;;;;;2.05;1.27;;;;;;;27.22;27.85;94412.63;5064710;28;20215;-37
2021/01/24 02:46:24;;;;;;;2.38;1.38;;;;;;;27.23;27.87;94427.44;5064394;28;20036;-36
2021/01/24 02:48:50;;;;;;;2.70;1.42;;;;;;;27.22;27.99;94431.03;5033431;28;20052;-39
2021/01/24 02:51:16;;;;;;;2.13;1.23;;;;;;;27.21;27.56;94426.75;5062531;28;20079;-38
2021/01/24 02:53:41;;;;;;;2.60;1.40;;;;;;;27.21;27.40;94429.38;5048372;28;20541;-38
2021/01/24 02:56:07;;;;;;;2.00;1.27;;;;;;;27.20;27.35;94440.88;5048288;28;20040;-38
2021/01/24 02:58:32;;;;;;;2.30;1.30;;;;;;;27.20;27.93;94449.59;5058992;28;20048;-40
2021/01/24 03:00:58;;;;;;;2.20;1.42;;;;;;;27.19;27.65;94447.13;5057618;28;20040;-40
2021/01/24 03:03:23;;;;;;;2.70;1.23;;;;;;;27.19;27.51;94458.44;5060438;28;20501;-39
2021/01/24 03:05:49;;;;;;;2.00;1.38;;;;;;;27.18;27.88;94471.72;5058198;28;20877;-39
2021/01/24 03:08:15;;;;;;;1.75;1.23;;;;;;;27.18;27.56;94471.72;5052174;28;20517;-38
2021/01/24 03:10:40;;;;;;;2.47;1.38;;;;;;;27.18;27.58;94477.00;5057355;28;20060;-38
2021/01/24 03:13:05;;;;;;;2.25;1.30;;;;;;;27.18;27.75;94477.00;5056822;28;20044;-38
2021/01/24 03:15:31;;;;;;;2.42;1.60;;;;;;;27.18;27.47;94495.41;5050358;28;20048;-41
2021/01/24 03:17:56;;;;;;;1.77;1.30;;;;;;;27.18;27.45;94512.00;5054234;28;20044;-37
2021/01/24 03:20:22;;;;;;;1.98;0.95;;;;;;;27.16;25.85;94521.84;5058897;28;20036;-40
2021/01/24 03:22:48;;;;;;;2.03;1.00;;;;;;;27.16;27.63;94523.66;5068151;28;20127;-37
2021/01/24 03:25:14;;;;;;;1.13;0.90;;;;;;;27.15;27.56;94537.78;5036660;28;20044;-37
2021/01/24 03:27:39;;;;;;;1.55;0.90;;;;;;;27.13;27.35;94543.16;5056097;28;20041;-38
2021/01/24 03:30:05;;;;;;;1.73;1.15;;;;;;;27.14;27.76;94550.06;5056087;28;21392;-38
2021/01/24 03:32:30;;;;;;;3.03;1.15;;;;;;;27.15;27.33;94550.91;5036194;28;20061;-38
2021/01/24 03:34:56;;;;;;;1.58;0.90;;;;;;;27.15;27.72;94550.91;5042868;28;20044;-39
2021/01/24 03:37:22;;;;;;;1.65;1.00;;;;;;;27.13;27.85;94549.28;5037048;28;21028;-36
2021/01/24 03:39:47;;;;;;;1.83;0.95;;;;;;;27.13;27.27;94544.00;5035915;28;20052;-38
2021/01/24 03:42:13;;;;;;;1.58;1.08;;;;;;;27.13;27.49;94537.91;5036681;28;20040;-37
2021/01/24 03:44:39;;;;;;;1.08;0.70;;;;;;;27.13;27.82;94548.44;5031794;28;20033;-37
2021/01/24 03:47:04;;;;;;;1.40;1.00;;;;;;;27.13;27.68;94558.94;5041608;28;20398;-39
2021/01/24 03:49:30;;;;;;;1.42;0.95;;;;;;;27.13;27.88;94559.78;5035204;28;20068;-35
2021/01/24 03:51:55;;;;;;;1.48;0.95;;;;;;;27.13;27.86;94574.72;5032629;28;20658;-38
2021/01/24 03:54:21;;;;;;;1.33;0.90;;;;;;;27.13;27.86;94586.06;5024810;28;20048;-38
2021/01/24 03:56:47;;;;;;;3.85;0.63;;;;;;;27.13;27.96;94583.44;5039463;28;20380;-39
2021/01/24 03:59:13;;;;;;;1.35;0.85;;;;;;;27.13;27.36;94591.34;5034994;28;20193;-39
2021/01/24 04:01:39;;;;;;;2.78;1.13;;;;;;;27.13;27.33;94593.13;5027390;28;20029;-39
2021/01/24 04:04:05;;;;;;;1.65;0.90;;;;;;;27.14;27.63;94597.41;5024250;28;20264;-38
2021/01/24 04:06:30;;;;;;;1.35;0.80;;;;;;;27.14;27.44;94610.53;5023015;28;21761;-37
2021/01/24 04:08:56;;;;;;;1.95;1.00;;;;;;;27.15;27.82;94606.13;5032856;28;20047;-38
2021/01/24 04:11:21;;;;;;;0.98;0.68;;;;;;;27.13;27.66;94617.63;5031628;28;20486;-37
2021/01/24 04:13:47;;;;;;;1.30;0.90;;;;;;;27.13;27.78;94622.88;5038679;28;20025;-37
2021/01/24 04:16:12;;;;;;;0.98;0.70;;;;;;;27.15;27.65;94624.53;5030684;28;20127;-34
2021/01/24 04:18:38;;;;;;;0.93;0.70;;;;;;;27.13;27.81;94620.25;5026555;28;20047;-39
2021/01/24 04:21:04;;;;;;;1.90;0.90;;;;;;;27.15;27.75;94629.78;5031732;28;20569;-36
2021/01/24 04:23:30;;;;;;;1.17;0.80;;;;;;;27.15;27.82;94630.59;5038951;28;20086;-38
2021/01/24 04:25:56;;;;;;;1.30;0.75;;;;;;;27.15;27.60;94641.13;5033007;28;20045;-36
2021/01/24 04:28:22;;;;;;;0.80;0.70;;;;;;;27.15;27.75;94635.06;5028105;28;20038;-37
2021/01/24 04:30:48;;;;;;;1.02;0.77;;;;;;;27.15;27.20;94640.31;5027238;28;20060;-38
2021/01/24 04:33:13;;;;;;;1.50;0.73;;;;;;;27.13;27.37;94646.53;5050705;28;20071;-38
2021/01/24 04:35:39;;;;;;;1.33;0.90;;;;;;;27.15;27.24;94646.38;5057919;28;20099;-35
2021/01/24 04:38:04;;;;;;;1.02;0.77;;;;;;;27.15;27.30;94651.63;5048076;28;21368;-37
2021/01/24 04:40:30;;;;;;;1.13;0.68;;;;;;;27.13;27.43;94654.44;5056188;28;20035;-41
2021/01/24 04:42:55;;;;;;;0.70;0.60;;;;;;;27.16;27.78;94655.09;5056003;28;20318;-37
2021/01/24 04:45:21;;;;;;;1.38;0.80;;;;;;;27.16;27.77;94666.47;5044569;28;20052;-38
2021/01/24 04:47:46;;;;;;;1.67;0.80;;;;;;;27.16;27.21;94668.25;5057603;28;20047;-38
2021/01/24 04:50:12;;;;;;;2.38;0.70;;;;;;;27.14;25.88;94663.13;5046126;28;20677;-38
2021/01/24 04:52:38;;;;;;;1.50;0.88;;;;;;;27.12;25.31;94676.41;5058811;28;20185;-39
2021/01/24 04:55:04;;;;;;;0.85;0.60;;;;;;;27.09;27.01;94679.34;5052490;28;20032;-37
2021/01/24 04:57:30;;;;;;;2.97;0.55;;;;;;;27.09;27.48;94681.97;5054421;28;20625;-36
2021/01/24 04:59:56;;;;;;;1.98;0.60;;;;;;;27.08;27.21;94672.41;5059005;28;20043;-39
2021/01/24 05:02:22;;;;;;;1.25;0.60;;;;;;;27.09;27.12;94687.22;5049644;28;20589;-37
2021/01/24 05:04:47;;;;;;;1.95;0.70;;;;;;;27.10;27.25;94686.25;5055170;28;20083;-37
2021/01/24 05:07:13;;;;;;;1.30;0.80;;;;;;;27.10;27.72;94683.63;5046360;28;20059;-34
2021/01/24 05:09:41;;;;;;;0.80;0.60;;;;;;;27.11;27.75;94693.16;5054418;28;20045;-36
2021/01/24 05:12:10;;;;;;;0.52;0.50;;;;;;;27.11;27.35;94690.53;5053916;28;20133;-40
2021/01/24 05:14:35;;;;;;;0.63;0.52;;;;;;;27.13;27.53;94691.22;5061374;28;20047;-42
2021/01/24 05:17:01;;;;;;;0.82;0.50;;;;;;;27.13;27.27;94693.88;5042573;28;20048;-37
2021/01/24 05:19:27;;;;;;;1.27;0.60;;;;;;;27.15;27.16;94698.16;5049501;28;20033;-39
2021/01/24 05:21:52;;;;;;;0.98;0.60;;;;;;;27.15;27.64;94698.16;5048427;28;20051;-37
2021/01/24 05:24:19;;;;;;;1.85;0.68;;;;;;;27.15;27.50;94690.25;5051311;28;20131;-37
2021/01/24 05:26:45;;;;;;;1.10;0.65;;;;;;;27.16;27.36;94699.81;5055712;28;20069;-39
2021/01/24 05:29:24;;;;;;;1.45;0.60;;;;;;;27.18;27.18;94692.59;5053681;28;20432;-41
2021/01/24 05:31:53;;;;;;;0.57;0.50;;;;;;;27.17;27.23;94698.81;5045330;28;20067;-38
2021/01/24 05:34:22;;;;;;;1.08;0.70;;;;;;;27.18;27.22;94692.59;5053945;28;20044;-37
2021/01/24 05:36:48;;;;;;;0.45;0.45;;;;;;;27.19;27.58;94692.44;5054612;28;20040;-41
2021/01/24 05:39:14;;;;;;;0.63;0.50;;;;;;;27.19;27.62;94681.13;5052999;28;20047;-37
2021/01/24 05:41:40;;;;;;;1.25;0.60;;;;;;;27.20;27.18;94693.28;5059388;28;20048;-38
2021/01/24 05:44:15;;;;;;;1.67;0.30;;;;;;;27.21;27.49;94693.16;5048075;28;20098;-40
2021/01/24 05:46:41;;;;;;;0.95;0.60;;;;;;;27.22;27.58;94704.47;5049161;28;20119;-36
2021/01/24 05:49:07;;;;;;;0.80;0.80;;;;;;;27.23;27.61;94706.16;5060724;28;20139;-35
2021/01/24 05:51:33;;;;;;;0.82;0.40;;;;;;;27.22;27.21;94713.22;5045113;28;20266;-37
2021/01/24 05:53:58;;;;;;;0.85;0.60;;;;;;;27.25;27.32;94714.72;5046848;28;20615;-38
2021/01/24 05:56:24;;;;;;;1.30;0.60;;;;;;;27.25;27.63;94714.72;5049800;28;20040;-37
2021/01/24 05:58:54;;;;;;;0.90;0.50;;;;;;;27.26;27.52;94721.63;5054207;28;20060;-39
2021/01/24 06:01:19;;;;;;;0.98;0.60;;;;;;;27.26;27.23;94724.25;5053641;28;20047;-38
2021/01/24 06:03:45;;;;;;;0.47;0.40;;;;;;;27.27;27.68;94729.38;5048066;28;20048;-38
2021/01/24 06:06:11;;;;;;;1.23;0.50;;;;;;;27.27;27.38;94739.91;5050092;28;20033;-38
2021/01/24 06:08:36;;;;;;;0.50;0.40;;;;;;;27.29;27.17;94736.28;5060710;28;20036;-39
2021/01/24 06:11:02;;;;;;;1.27;0.60;;;;;;;27.29;27.47;94742.41;5049968;28;20043;-39
2021/01/24 06:13:28;;;;;;;0.30;0.30;;;;;;;27.30;27.56;94741.41;5051230;28;20048;-42
2021/01/24 06:15:54;;;;;;;2.53;0.70;;;;;;;27.27;27.56;94745.16;5058119;28;20049;-38
2021/01/24 06:18:24;;;;;;;3.63;0.50;;;;;;;27.31;27.08;94750.97;5052116;28;20607;-41
2021/01/24 06:20:52;;;;;;;1.05;0.57;;;;;;;27.30;26.97;94751.94;5055964;28;20036;-41
2021/01/24 06:23:36;;;;;;;0.88;0.50;;;;;;;27.32;27.57;94760.53;5046848;28;20119;-38
2021/01/24 06:26:09;;;;;;;1.15;0.63;;;;;;;27.33;27.23;94759.56;5052072;28;20496;-38
2021/01/24 06:28:36;;;;;;;1.23;0.35;;;;;;;27.32;27.10;94763.16;5056324;28;20024;-38
2021/01/24 06:31:02;;;;;;;0.63;0.50;;;;;;;27.32;27.32;94773.69;5037504;28;20114;-40
2021/01/24 06:33:27;;;;;;;0.80;0.43;;;;;;;27.32;27.58;94773.69;5054905;28;20482;-40
2021/01/24 06:36:00;;;;;;;0.77;0.50;;;;;;;27.34;27.19;94773.56;5062226;28;20044;-41
2021/01/24 06:38:33;;;;;;;0.55;0.55;;;;;;;27.35;27.45;94778.66;5051750;28;20043;-38
2021/01/24 06:41:00;;;;;;;2.45;0.45;;;;;;;27.35;26.98;94783.91;5056215;28;20448;-39
2021/01/24 06:43:40;;;;;;;1.15;0.52;;;;;;;27.36;27.00;94785.59;5063366;28;20662;-38
2021/01/24 06:46:06;;;;;;;0.82;0.50;;;;;;;27.37;27.17;94795.13;5051445;28;20041;-38
2021/01/24 06:48:42;;;;;;;0.68;0.40;;;;;;;27.38;27.12;94794.16;5060378;28;20447;-40
2021/01/24 06:51:32;;;;;;;1.10;0.52;;;;;;;27.38;27.33;94804.66;5052783;28;20709;-38
2021/01/24 06:53:59;;;;;;;1.77;0.50;;;;;;;27.37;26.92;94816.16;5058184;28;20097;-37
2021/01/24 06:56:34;;;;;;;1.45;0.52;;;;;;;27.38;27.28;94809.94;5056291;28;20045;-39
2021/01/24 06:58:59;;;;;;;6.72;0.70;;;;;;;27.38;26.96;94817.81;5065658;28;20028;-37
2021/01/24 07:01:25;;;;;;;0.90;0.70;;;;;;;27.39;27.02;94811.59;5054530;28;20028;-39
2021/01/24 07:06:44;;;;;;;0.95;0.50;;;;;;;27.37;27.33;94818.81;5058362;28;20021;-37
2021/01/24 07:09:27;;;;;;;1.98;0.90;;;;;;;27.38;25.66;94830.97;5050195;28;20107;-38
2021/01/24 07:12:10;;;;;;;2.35;0.73;;;;;;;27.34;25.11;94840.09;5058788;28;20043;-39
2021/01/24 07:14:38;;;;;;;1.92;0.77;;;;;;;27.29;26.19;94837.06;5054794;28;20048;-41
2021/01/24 07:17:07;;;;;;;0.45;0.40;;;;;;;27.27;26.91;94839.03;5057151;28;20413;-37
2021/01/24 07:19:45;;;;;;;3.10;0.47;;;;;;;27.30;27.16;94843.19;5057483;28;20040;-36
2021/01/24 07:22:11;;;;;;;1.40;0.60;;;;;;;27.32;27.01;94841.22;5048939;28;20074;-41
2021/01/24 07:24:37;;;;;;;1.35;0.60;;;;;;;27.34;26.91;94845.38;5050632;28;20046;-40
2021/01/24 07:27:09;;;;;;;0.98;0.32;;;;;;;27.36;27.12;94846.06;5055295;28;20051;-39
2021/01/24 07:29:35;;;;;;;2.13;0.68;;;;;;;27.38;27.18;94841.50;5060874;28;20773;-37
2021/01/24 07:32:20;;;;;;;0.45;0.40;;;;;;;27.41;27.19;94850.09;5052625;28;20056;-40
2021/01/24 07:34:47;;;;;;;0.40;0.40;;;;;;;27.42;26.98;94851.75;5052407;28;20044;-42
2021/01/24 07:37:15;;;;;;;0.88;0.45;;;;;;;27.43;27.09;94848.13;5054382;28;20047;-37
2021/01/24 07:39:42;;;;;;;1.10;0.60;;;;;;;27.44;26.77;94844.53;5044496;28;20095;-40
2021/01/24 07:42:07;;;;;;;0.40;0.40;;;;;;;27.45;27.52;94851.44;5058460;28;20032;-40
2021/01/24 07:44:33;;;;;;;0.68;0.40;;;;;;;27.44;27.28;94850.63;5050665;28;20052;-35
2021/01/24 07:46:59;;;;;;;1.00;0.60;;;;;;;27.45;27.09;94846.19;5046263;28;20437;-39
2021/01/24 07:49:24;;;;;;;2.72;0.70;;;;;;;27.44;26.89;94849.78;5055688;28;20041;-40
2021/01/24 07:51:50;;;;;;;13.60;0.60;;;;;;;27.44;26.86;94853.25;5063271;28;20053;-38
2021/01/24 07:54:15;;;;;;;3.60;0.52;;;;;;;27.44;27.00;94860.31;5053326;28;20463;-40
2021/01/24 07:56:42;;;;;;;1.50;0.43;;;;;;;27.44;26.70;94857.69;5052074;28;20037;-38
2021/01/24 07:59:07;;;;;;;5.13;0.80;;;;;;;27.45;26.72;94856.72;5039992;28;20082;-40
2021/01/24 08:01:33;;;;;;;0.65;0.40;;;;;;;27.44;26.47;94855.06;5043077;28;20032;-39
2021/01/24 08:04:00;;;;;;;4.85;0.73;;;;;;;27.43;26.04;94859.50;5045564;28;20040;-42
2021/01/24 08:06:26;;;;;;;7.40;0.68;;;;;;;27.42;26.67;94857.81;5046671;28;20074;-43
2021/01/24 08:08:52;;;;;;;2.13;0.45;;;;;;;27.44;26.70;94865.56;5049435;28;20037;-40
2021/01/24 08:11:18;;;;;;;3.53;0.60;;;;;;;27.44;26.43;94860.31;5046026;28;20405;-39
2021/01/24 08:13:44;;;;;;;3.92;0.70;;;;;;;27.43;26.62;94869.19;5049109;28;20052;-42
2021/01/24 08:16:11;;;;;;;6.20;0.90;;;;;;;27.39;24.56;94864.19;5045067;28;20039;-41
2021/01/24 08:18:37;;;;;;;6.95;1.02;;;;;;;27.37;23.62;94865.31;5047067;28;20869;-39
2021/01/24 08:21:03;;;;;;;5.15;1.05;;;;;;;27.33;23.67;94874.44;5015489;28;20083;-39
2021/01/24 08:23:28;;;;;;;4.30;0.90;;;;;;;27.28;24.37;94874.88;5047492;28;20040;-41
2021/01/24 08:26:00;;;;;;;1.35;0.80;;;;;;;27.25;24.25;94873.34;5046763;28;21285;-40
2021/01/24 08:28:26;;;;;;;2.85;0.93;;;;;;;27.21;24.32;94879.00;5060544;28;20632;-39
2021/01/24 08:30:52;;;;;;;3.17;0.73;;;;;;;27.17;24.17;94880.25;5044917;28;20048;-43
2021/01/24 08:33:20;;;;;;;4.57;0.73;;;;;;;27.15;24.04;94883.00;5052493;28;20051;-44
2021/01/24 08:35:46;;;;;;;2.42;0.90;;;;;;;27.13;23.78;94891.06;5044620;28;20047;-42
2021/01/24 08:38:13;;;;;;;3.60;0.80;;;;;;;27.10;23.89;94886.06;5045354;28;20468;-44
2021/01/24 08:40:38;;;;;;;1.50;0.93;;;;;;;27.09;24.34;94891.44;5038572;28;20032;-44
2021/01/24 08:43:05;;;;;;;1.23;0.75;;;;;;;27.07;23.85;94888.94;5043897;28;20047;-40
2021/01/24 08:45:31;;;;;;;1.95;1.00;;;;;;;27.06;24.35;94879.41;5042299;28;20612;-40
2021/01/24 08:48:01;;;;;;;1.58;0.90;;;;;;;27.07;25.51;94880.22;5042664;28;20033;-42
2021/01/24 08:50:33;;;;;;;1.83;0.57;;;;;;;27.11;26.33;94879.81;5041365;28;20044;-39
2021/01/24 08:53:00;;;;;;;3.53;0.60;;;;;;;27.17;26.49;94882.88;5042244;28;20028;-39
2021/01/24 08:55:26;;;;;;;1.50;0.60;;;;;;;27.21;26.76;94886.88;5046063;28;21799;-41
2021/01/24 08:57:52;;;;;;;2.33;0.50;;;;;;;27.25;26.58;94889.13;5055468;28;20062;-41
2021/01/24 09:00:18;;;;;;;0.52;0.40;;;;;;;27.29;26.74;94889.66;5045828;28;20936;-37
2021/01/24 09:02:43;;;;;;;4.47;0.80;;;;;;;27.33;26.51;94896.31;5049738;28;20060;-43
2021/01/24 09:05:13;;;;;;;1.15;0.52;;;;;;;27.36;26.81;94903.94;5042449;28;20043;-40
2021/01/24 09:07:42;;;;;;;5.75;0.73;;;;;;;27.38;26.59;94894.09;5049098;28;20036;-40
2021/01/24 09:10:31;;;;;;;3.70;0.60;;;;;;;27.42;26.80;94896.47;5047033;28;20441;-37
2021/01/24 09:13:01;;;;;;;1.42;0.68;;;;;;;27.44;26.40;94907.66;5044073;28;20080;-40
2021/01/24 09:15:27;;;;;;;2.25;0.75;;;;;;;27.47;26.41;94907.41;5044950;28;20128;-42
2021/01/24 09:17:54;;;;;;;1.00;0.50;;;;;;;27.50;26.74;94909.75;5046768;28;20520;-43
2021/01/24 09:20:20;;;;;;;1.40;0.57;;;;;;;27.51;26.66;94909.59;5047644;28;20490;-38
2021/01/24 09:22:46;;;;;;;2.45;0.80;;;;;;;27.53;26.76;94918.19;5047461;28;20044;-42
2021/01/24 09:25:11;;;;;;;1.65;0.52;;;;;;;27.55;26.67;94925.97;5049376;28;20040;-38
2021/01/24 09:27:37;;;;;;;2.00;0.57;;;;;;;27.57;26.68;94924.00;5051471;28;20032;-39
2021/01/24 09:30:08;;;;;;;2.92;0.40;;;;;;;27.55;26.92;94920.69;5048982;28;20044;-40
2021/01/24 09:32:34;;;;;;;1.50;0.50;;;;;;;27.60;26.93;94929.00;5046276;28;20067;-43
2021/01/24 09:34:59;;;;;;;2.05;0.47;;;;;;;27.60;26.72;94936.88;5043204;28;22077;-41
2021/01/24 09:37:25;;;;;;;4.20;0.40;;;;;;;27.63;26.76;94931.41;5047163;28;20505;-40
2021/01/24 09:39:50;;;;;;;1.83;0.60;;;;;;;27.65;26.60;94932.06;5039032;28;20045;-41
2021/01/24 09:42:17;;;;;;;0.60;0.40;;;;;;;27.65;26.86;94942.59;5045447;28;20048;-42
2021/01/24 09:44:42;;;;;;;1.10;0.60;;;;;;;27.69;26.93;94942.34;5044716;28;20036;-40
2021/01/24 09:47:08;;;;;;;1.85;0.43;;;;;;;27.71;26.84;94940.38;5045213;28;20090;-39
2021/01/24 09:49:33;;;;;;;8.15;1.20;;;;;;;27.70;25.85;94943.97;5045014;28;20052;-40
2021/01/24 09:51:59;;;;;;;2.50;0.50;;;;;;;27.69;26.80;94947.59;5052465;28;20045;-45
2021/01/24 09:54:25;;;;;;;4.28;0.43;;;;;;;27.71;26.80;94943.00;5049223;28;20044;-38
2021/01/24 09:56:51;;;;;;;4.72;0.70;;;;;;;27.73;26.38;94948.97;5051832;28;20460;-43
2021/01/24 09:59:17;;;;;;;6.95;1.00;;;;;;;27.73;26.35;94948.97;5052936;28;20048;-42
2021/01/24 10:01:42;;;;;;;2.58;0.65;;;;;;;27.74;26.27;94955.91;5049950;28;20037;-40
2021/01/24 10:04:08;;;;;;;0.93;0.55;;;;;;;27.75;26.06;94953.13;5052121;28;20202;-40
2021/01/24 10:06:34;;;;;;;2.00;0.90;;;;;;;27.76;26.28;94964.47;5049050;28;20558;-41
2021/01/24 10:09:00;;;;;;;1.80;1.00;;;;;;;27.62;17.79;94966.53;5057261;28;20075;-39
2021/01/24 10:11:26;;;;;;;2.50;1.00;;;;;;;27.27;14.98;94954.72;5055828;28;20048;-43
2021/01/24 10:13:51;;;;;;;2.38;1.30;;;;;;;26.81;14.81;94970.88;5054611;28;20041;-42
2021/01/24 10:16:17;;;;;;;4.68;1.50;;;;;;;26.33;15.83;94975.78;5050412;28;20708;-38
2021/01/24 10:18:43;;;;;;;7.90;1.15;;;;;;;26.08;17.39;94969.91;5054408;28;20036;-42
2021/01/24 10:21:09;;;;;;;1.90;0.98;;;;;;;25.96;18.80;94969.16;5056121;28;20444;-39
2021/01/24 10:23:35;;;;;;;6.40;1.42;;;;;;;25.92;19.63;94974.75;5049025;28;20052;-40
2021/01/24 10:26:01;;;;;;;6.78;1.55;;;;;;;25.92;20.41;94986.09;5046848;28;20425;-39
2021/01/24 10:28:26;;;;;;;4.03;1.50;;;;;;;25.95;20.65;94979.78;5046800;28;20044;-40
2021/01/24 10:30:52;;;;;;;3.65;1.15;;;;;;;26.01;21.21;94984.50;5046330;28;20056;-45
2021/01/24 10:33:18;;;;;;;5.22;1.00;;;;;;;26.08;21.32;94979.56;5049118;28;20036;-39
2021/01/24 10:35:44;;;;;;;3.33;1.10;;;;;;;26.16;21.97;94981.59;5049163;28;20425;-42
2021/01/24 10:38:10;;;;;;;3.92;1.23;;;;;;;26.23;22.15;94982.72;5056838;28;20562;-38
2021/01/24 10:40:36;;;;;;;3.38;1.30;;;;;;;26.29;22.11;94987.50;5048381;28;20091;-43
2021/01/24 10:43:05;;;;;;;5.30;1.35;;;;;;;26.36;22.23;94990.44;5053417;28;20051;-43
2021/01/24 10:45:31;;;;;;;8.88;1.55;;;;;;;26.44;22.30;94995.03;5050442;28;20044;-43
2021/01/24 10:47:57;;;;;;;4.55;1.33;;;;;;;26.48;22.94;95001.72;5047282;28;20968;-42
2021/01/24 10:50:23;;;;;;;7.75;1.85;;;;;;;26.52;22.79;94987.34;5056604;28;20055;-44
2021/01/24 10:52:49;;;;;;;5.50;2.05;;;;;;;26.56;22.97;94994.00;5061509;28;20048;-38
2021/01/24 10:55:14;;;;;;;24.80;3.45;;;;;;;26.60;23.74;94998.03;5052447;28;20040;-43
2021/01/24 10:57:40;;;;;;;21.38;3.42;;;;;;;26.65;23.29;95004.72;5061226;28;20040;-43
2021/01/24 11:00:06;;;;;;;15.68;3.28;;;;;;;26.71;23.27;95017.31;5049854;28;20040;-43
2021/01/24 11:02:32;;;;;;;13.07;2.85;;;;;;;26.74;23.41;95006.53;5059441;28;20040;-40
2021/01/24 11:04:57;;;;;;;10.40;2.90;;;;;;;26.76;23.75;95014.31;5062744;28;20098;-40
2021/01/24 11:07:23;;;;;;;14.20;3.08;;;;;;;26.80;24.00;95016.53;5063777;28;20477;-42
2021/01/24 11:09:49;;;;;;;15.85;2.75;;;;;;;26.83;23.98;95018.91;5058228;28;20079;-39
2021/01/24 11:12:15;;;;;;;11.05;3.13;;;;;;;26.86;24.12;95021.25;5064596;28;20033;-41
2021/01/24 11:14:42;;;;;;;13.80;3.00;;;;;;;26.87;24.04;95022.94;5063186;28;20603;-36
2021/01/24 11:17:08;;;;;;;8.52;2.95;;;;;;;26.92;23.79;95019.06;5057824;28;20132;-39
2021/01/24 11:19:34;;;;;;;13.02;3.28;;;;;;;26.94;23.86;95017.13;5058160;28;20040;-42
2021/01/24 11:21:59;;;;;;;11.93;2.80;;;;;;;26.95;24.40;95018.81;5065662;28;20098;-41
2021/01/24 11:24:25;;;;;;;11.25;2.63;;;;;;;26.98;24.18;95029.94;5059491;28;20044;-42
2021/01/24 11:26:51;;;;;;;7.25;2.70;;;;;;;27.01;24.49;95039.34;5058588;28;20401;-38
2021/01/24 11:29:17;;;;;;;11.60;3.15;;;;;;;27.03;24.47;95045.28;5060049;28;20040;-42
2021/01/24 11:31:42;;;;;;;6.97;2.55;;;;;;;27.05;24.42;95035.47;5057684;28;20516;-42
2021/01/24 11:34:07;;;;;;;6.40;2.25;;;;;;;27.07;24.54;95035.31;5063360;28;20044;-40
2021/01/24 11:36:33;;;;;;;9.95;2.78;;;;;;;27.09;24.55;95041.31;5057308;28;20473;-44